South Lyme, CT (06376)

5:46 PM EDT on July 26, 2016 (GMT -0400)
Giant's Neck Heights | | Change Station
Active Advisory: Special Statement Active Notice: Record Report

Elev 89 ft 41.31 °N, 72.23 °W | Updated 2 minutes ago

Partly Cloudy
Partly Cloudy
88.7 °F
Feels Like 91 °F
N
0.0
Wind Variable Wind from ESE
Gusts 7.0 mph

Today
High -- | Low -- °F
--% Chance of Precip.
Yesterday
High -- | Low -- °F
Precip. -- in
Pressure 29.81 in
Visibility 10.0 miles
Clouds Few 7000 ft
Heat Index 91 °F
Dew Point 65 °F
Humidity 46%
Rainfall 0.00 in
Snow Depth Not available.
5:38 AM 8:11 PM
Waning Gibbous, 51% visible
METAR KGON 262056Z 27007KT 250V330 10SM FEW070 31/20 A2980 RMK AO2 SLP092 T03060200 55005
Pressure 29.81 in
Visibility 10.0 miles
Clouds Few 7000 ft
Heat Index 91 °F
Dew Point 65 °F
Humidity 46%
Rainfall 0.00 in
Snow Depth Not available.
5:38 AM 8:11 PM
Waning Gibbous, 51% visible
METAR KGON 262056Z 27007KT 250V330 10SM FEW070 31/20 A2980 RMK AO2 SLP092 T03060200 55005

10-Day Weather Forecast

Almanac

Astronomy

Jul. 26, 2016 Rise Set
Actual Time
Civil Twilight
Nautical Twilight
Astronomical Twilight
Moon
Length of Visible Light
Length of Day
Tomorrow will be .
, % of the Moon is Illuminated

Today's Extremes

State Highs State Lows

Community

WunderPhotos

Upload Photos

1,927,702 photos uploaded!

WunderBlog® & News

Nearby

Air Quality

  Air Quality AQ Index Pollutant
Not available.

Snow Depth

Station Depth Elevation

Earthquake Activity

City Distance Mag. Time & Date
Minimum magnitude displayed is 2.5.

Coastal Water Temperatures

Place Temperature

Stations

Nearby Weather Stations

Station Location Temp. Windchill Dew Point Humidity Wind Precip. Elev Updated Type
                   

Watches & Warnings

Special Statement
Issued: 7:46 AM EDT Jul. 26, 2016 – National Weather Service

... Elevated threat for brush fire spread this afternoon...

Hot temperatures and westerly wind gusts of 20 to 25 mph are
expected this afternoon. Relative humidity values will drop to the
lower 30s percent range during this time. While the area received
some rainfall yesterday... much of it was less than one quarter of
an inch. Input from fire officials indicates the forecast weather
conditions and recent abnormally dry weather will result in
elevated fire weather concerns for today.



746 am EDT Tue Jul 26 2016

... Elevated threat for brush fire spread this afternoon...

Hot temperatures and westerly wind gusts of 20 to 25 mph are
expected this afternoon. Relative humidity values will drop to the
lower 30s percent range during this time. While the area received
some rainfall yesterday... much of it was less than one quarter of
an inch. Input from fire officials indicates the forecast weather
conditions and recent abnormally dry weather will result in
elevated fire weather concerns for today.